sensor_id;sensor_type;location;lat;lon;timestamp;pressure;altitude;pressure_sealevel;temperature;humidity
6565;BME280;3316;44.118;27.258;2023-04-24T00:00:33;100935.22;;;10.51;100.00
6565;BME280;3316;44.118;27.258;2023-04-24T00:02:59;100974.53;;;10.78;100.00
6565;BME280;3316;44.118;27.258;2023-04-24T00:05:24;100966.66;;;10.77;100.00
6565;BME280;3316;44.118;27.258;2023-04-24T00:07:50;100920.19;;;10.65;100.00
6565;BME280;3316;44.118;27.258;2023-04-24T00:10:19;100956.84;;;11.00;100.00
6565;BME280;3316;44.118;27.258;2023-04-24T00:12:45;100928.84;;;10.85;100.00
6565;BME280;3316;44.118;27.258;2023-04-24T00:15:10;100950.66;;;11.02;100.00
6565;BME280;3316;44.118;27.258;2023-04-24T00:17:36;100960.28;;;11.06;100.00
6565;BME280;3316;44.118;27.258;2023-04-24T00:20:03;100958.56;;;11.02;100.00
6565;BME280;3316;44.118;27.258;2023-04-24T00:22:30;100946.34;;;10.95;100.00
6565;BME280;3316;44.118;27.258;2023-04-24T00:24:56;100948.16;;;10.90;100.00
6565;BME280;3316;44.118;27.258;2023-04-24T00:27:22;100943.72;;;10.94;100.00
6565;BME280;3316;44.118;27.258;2023-04-24T00:29:48;100939.34;;;10.94;100.00
6565;BME280;3316;44.118;27.258;2023-04-24T00:32:13;100937.53;;;10.96;100.00
6565;BME280;3316;44.118;27.258;2023-04-24T00:34:39;100941.00;;;11.03;100.00
6565;BME280;3316;44.118;27.258;2023-04-24T00:37:05;100939.19;;;11.12;100.00
6565;BME280;3316;44.118;27.258;2023-04-24T00:39:31;100933.06;;;11.09;100.00
6565;BME280;3316;44.118;27.258;2023-04-24T00:41:57;100924.31;;;11.05;100.00
6565;BME280;3316;44.118;27.258;2023-04-24T00:44:22;100890.31;;;10.77;100.00
6565;BME280;3316;44.118;27.258;2023-04-24T00:46:49;100925.25;;;10.98;100.00
6565;BME280;3316;44.118;27.258;2023-04-24T00:49:23;100936.66;;;10.99;100.00
6565;BME280;3316;44.118;27.258;2023-04-24T00:51:49;100906.97;;;10.80;100.00
6565;BME280;3316;44.118;27.258;2023-04-24T00:54:16;100935.84;;;10.89;100.00
6565;BME280;3316;44.118;27.258;2023-04-24T00:56:42;100942.91;;;10.81;100.00
6565;BME280;3316;44.118;27.258;2023-04-24T00:59:09;100941.19;;;10.80;100.00
6565;BME280;3316;44.118;27.258;2023-04-24T01:01:35;100938.53;;;10.82;100.00
6565;BME280;3316;44.118;27.258;2023-04-24T01:04:01;100928.84;;;10.87;100.00
6565;BME280;3316;44.118;27.258;2023-04-24T01:06:29;100941.00;;;11.07;100.00
6565;BME280;3316;44.118;27.258;2023-04-24T01:08:57;100941.78;;;11.18;100.00
6565;BME280;3316;44.118;27.258;2023-04-24T01:11:24;100941.72;;;11.24;100.00
6565;BME280;3316;44.118;27.258;2023-04-24T01:13:50;100941.69;;;11.26;100.00
6565;BME280;3316;44.118;27.258;2023-04-24T01:16:16;100934.66;;;11.31;100.00
6565;BME280;3316;44.118;27.258;2023-04-24T01:18:43;100942.50;;;11.37;100.00
6565;BME280;3316;44.118;27.258;2023-04-24T01:21:09;100946.94;;;11.32;100.00
6565;BME280;3316;44.118;27.258;2023-04-24T01:23:36;100916.44;;;11.05;100.00
6565;BME280;3316;44.118;27.258;2023-04-24T01:26:01;100941.00;;;11.07;100.00
6565;BME280;3316;44.118;27.258;2023-04-24T01:28:27;100936.66;;;10.99;100.00
6565;BME280;3316;44.118;27.258;2023-04-24T01:30:53;100932.31;;;10.93;100.00
6565;BME280;3316;44.118;27.258;2023-04-24T01:33:20;100937.53;;;10.99;100.00
6565;BME280;3316;44.118;27.258;2023-04-24T01:35:46;100920.94;;;10.90;100.00
6565;BME280;3316;44.118;27.258;2023-04-24T01:38:12;100933.22;;;10.89;100.00
6565;BME280;3316;44.118;27.258;2023-04-24T01:40:37;100920.94;;;10.90;100.00
6565;BME280;3316;44.118;27.258;2023-04-24T01:43:03;100910.53;;;10.74;100.00
6565;BME280;3316;44.118;27.258;2023-04-24T01:45:28;100922.78;;;10.74;100.00
6565;BME280;3316;44.118;27.258;2023-04-24T01:47:54;100921.03;;;10.73;100.00
6565;BME280;3316;44.118;27.258;2023-04-24T01:50:20;100921.94;;;10.69;100.00
6565;BME280;3316;44.118;27.258;2023-04-24T01:52:45;100876.53;;;10.38;100.00
6565;BME280;3316;44.118;27.258;2023-04-24T01:55:10;100907.09;;;10.56;100.00
6565;BME280;3316;44.118;27.258;2023-04-24T01:57:36;100914.94;;;10.68;100.00
6565;BME280;3316;44.118;27.258;2023-04-24T02:00:03;100906.19;;;10.63;100.00
6565;BME280;3316;44.118;27.258;2023-04-24T02:02:30;100903.53;;;10.67;100.00
6565;BME280;3316;44.118;27.258;2023-04-24T02:04:56;100906.19;;;10.61;100.00
6565;BME280;3316;44.118;27.258;2023-04-24T02:07:22;100900.09;;;10.58;100.00
6565;BME280;3316;44.118;27.258;2023-04-24T02:09:47;100895.75;;;10.49;100.00
6565;BME280;3316;44.118;27.258;2023-04-24T02:12:14;100901.94;;;10.41;100.00
6565;BME280;3316;44.118;27.258;2023-04-24T02:14:39;100903.81;;;10.15;100.00
6565;BME280;3316;44.118;27.258;2023-04-24T02:17:05;100898.63;;;9.87;100.00
6565;BME280;3316;44.118;27.258;2023-04-24T02:19:30;100884.69;;;9.64;100.00
6565;BME280;3316;44.118;27.258;2023-04-24T02:21:56;100892.56;;;9.70;100.00
6565;BME280;3316;44.118;27.258;2023-04-24T02:24:21;100863.72;;;9.51;100.00
6565;BME280;3316;44.118;27.258;2023-04-24T02:26:47;100882.09;;;9.57;100.00
6565;BME280;3316;44.118;27.258;2023-04-24T02:29:12;100890.84;;;9.57;100.00
6565;BME280;3316;44.118;27.258;2023-04-24T02:31:38;100889.97;;;9.57;100.00
6565;BME280;3316;44.118;27.258;2023-04-24T02:34:03;100878.63;;;9.46;100.00
6565;BME280;3316;44.118;27.258;2023-04-24T02:36:28;100882.97;;;9.42;100.00
6565;BME280;3316;44.118;27.258;2023-04-24T02:38:55;100883.84;;;9.47;100.00
6565;BME280;3316;44.118;27.258;2023-04-24T02:41:21;100872.47;;;9.42;100.00
6565;BME280;3316;44.118;27.258;2023-04-24T02:43:46;100875.13;;;9.44;100.00
6565;BME280;3316;44.118;27.258;2023-04-24T02:46:12;100867.22;;;9.36;100.00
6565;BME280;3316;44.118;27.258;2023-04-24T02:48:37;100897.88;;;9.37;100.00
6565;BME280;3316;44.118;27.258;2023-04-24T02:51:03;100895.25;;;9.33;100.00
6565;BME280;3316;44.118;27.258;2023-04-24T02:53:29;100838.41;;;9.00;100.00
6565;BME280;3316;44.118;27.258;2023-04-24T02:55:55;100899.59;;;9.38;100.00
6565;BME280;3316;44.118;27.258;2023-04-24T02:58:21;100899.63;;;9.34;100.00
6565;BME280;3316;44.118;27.258;2023-04-24T03:00:46;100887.38;;;9.36;100.00
6565;BME280;3316;44.118;27.258;2023-04-24T03:03:12;100898.75;;;9.39;100.00
6565;BME280;3316;44.118;27.258;2023-04-24T03:05:38;100882.13;;;9.42;100.00
6565;BME280;3316;44.118;27.258;2023-04-24T03:08:04;100882.09;;;9.45;100.00
6565;BME280;3316;44.118;27.258;2023-04-24T03:10:29;100876.84;;;9.45;100.00
6565;BME280;3316;44.118;27.258;2023-04-24T03:12:55;100897.88;;;9.49;100.00
6565;BME280;3316;44.118;27.258;2023-04-24T03:15:20;100881.22;;;9.44;100.00
6565;BME280;3316;44.118;27.258;2023-04-24T03:17:46;100889.13;;;9.41;100.00
6565;BME280;3316;44.118;27.258;2023-04-24T03:20:12;100887.38;;;9.43;100.00
6565;BME280;3316;44.118;27.258;2023-04-24T03:22:38;100892.59;;;9.58;100.00
6565;BME280;3316;44.118;27.258;2023-04-24T03:25:04;100889.94;;;9.60;100.00
6565;BME280;3316;44.118;27.258;2023-04-24T03:27:30;100869.00;;;9.36;100.00
6565;BME280;3316;44.118;27.258;2023-04-24T03:29:55;100890.00;;;9.43;100.00
6565;BME280;3316;44.118;27.258;2023-04-24T03:32:22;100845.41;;;9.04;100.00
6565;BME280;3316;44.118;27.258;2023-04-24T03:34:48;100890.00;;;9.48;100.00
6565;BME280;3316;44.118;27.258;2023-04-24T03:37:14;100885.59;;;9.48;100.00
6565;BME280;3316;44.118;27.258;2023-04-24T03:39:40;100894.31;;;9.74;100.00
6565;BME280;3316;44.118;27.258;2023-04-24T03:42:05;100883.78;;;9.80;100.00
6565;BME280;3316;44.118;27.258;2023-04-24T03:44:30;100903.84;;;10.10;100.00
6565;BME280;3316;44.118;27.258;2023-04-24T03:46:57;100904.56;;;10.42;100.00
6565;BME280;3316;44.118;27.258;2023-04-24T03:49:23;100894.84;;;10.55;100.00
6565;BME280;3316;44.118;27.258;2023-04-24T03:51:48;100898.22;;;10.73;100.00
6565;BME280;3316;44.118;27.258;2023-04-24T03:54:14;100913.91;;;10.90;100.00
6565;BME280;3316;44.118;27.258;2023-04-24T03:56:39;100874.31;;;11.02;100.00
6565;BME280;3316;44.118;27.258;2023-04-24T03:59:05;100911.25;;;11.89;100.00
6565;BME280;3316;44.118;27.258;2023-04-24T04:01:30;100905.97;;;12.59;100.00
6565;BME280;3316;44.118;27.258;2023-04-24T04:03:56;100896.88;;;13.34;100.00
6565;BME280;3316;44.118;27.258;2023-04-24T04:06:21;100886.28;;;13.35;100.00
6565;BME280;3316;44.118;27.258;2023-04-24T04:08:47;100913.34;;;13.95;97.53
6565;BME280;3316;44.118;27.258;2023-04-24T04:11:13;100915.19;;;13.92;94.74
6565;BME280;3316;44.118;27.258;2023-04-24T04:13:38;100920.47;;;13.92;96.75
6565;BME280;3316;44.118;27.258;2023-04-24T04:16:04;100915.00;;;14.45;93.25
6565;BME280;3316;44.118;27.258;2023-04-24T04:18:29;100916.34;;;14.64;91.41
6565;BME280;3316;44.118;27.258;2023-04-24T04:20:55;100911.84;;;15.40;85.80
6565;BME280;3316;44.118;27.258;2023-04-24T04:23:22;100916.25;;;15.74;82.17
6565;BME280;3316;44.118;27.258;2023-04-24T04:25:48;100909.41;;;15.98;79.25
6565;BME280;3316;44.118;27.258;2023-04-24T04:28:13;100914.78;;;16.56;75.64
6565;BME280;3316;44.118;27.258;2023-04-24T04:30:39;100927.19;;;16.57;74.93
6565;BME280;3316;44.118;27.258;2023-04-24T04:33:05;100926.13;;;17.18;72.57
6565;BME280;3316;44.118;27.258;2023-04-24T04:35:30;100906.03;;;17.36;70.01
6565;BME280;3316;44.118;27.258;2023-04-24T04:37:56;100931.25;;;18.01;67.33
6565;BME280;3316;44.118;27.258;2023-04-24T04:40:24;100925.03;;;18.01;65.32
6565;BME280;3316;44.118;27.258;2023-04-24T04:42:50;100916.38;;;18.88;63.45
6565;BME280;3316;44.118;27.258;2023-04-24T04:45:18;100916.63;;;19.04;60.12
6565;BME280;3316;44.118;27.258;2023-04-24T04:47:43;100926.06;;;18.91;59.82
6565;BME280;3316;44.118;27.258;2023-04-24T04:50:10;100923.22;;;18.95;59.47
6565;BME280;3316;44.118;27.258;2023-04-24T04:52:35;100932.09;;;17.77;62.87
6565;BME280;3316;44.118;27.258;2023-04-24T04:55:01;100929.25;;;17.05;67.81
6565;BME280;3316;44.118;27.258;2023-04-24T04:57:27;100914.28;;;16.44;71.90
6565;BME280;3316;44.118;27.258;2023-04-24T04:59:52;100922.69;;;16.59;72.21
6565;BME280;3316;44.118;27.258;2023-04-24T05:02:18;100935.88;;;17.18;71.24
6565;BME280;3316;44.118;27.258;2023-04-24T05:04:43;100930.19;;;17.56;68.51
6565;BME280;3316;44.118;27.258;2023-04-24T05:07:09;100934.56;;;17.83;68.11
6565;BME280;3316;44.118;27.258;2023-04-24T05:09:34;100917.63;;;17.07;71.02
6565;BME280;3316;44.118;27.258;2023-04-24T05:12:00;100908.09;;;18.03;66.50
6565;BME280;3316;44.118;27.258;2023-04-24T05:14:26;100922.50;;;17.98;66.26
6565;BME280;3316;44.118;27.258;2023-04-24T05:16:51;100913.84;;;18.16;66.09
6565;BME280;3316;44.118;27.258;2023-04-24T05:19:17;100912.03;;;18.64;64.11
6565;BME280;3316;44.118;27.258;2023-04-24T05:21:43;100908.00;;;18.76;63.11
6565;BME280;3316;44.118;27.258;2023-04-24T05:24:08;100913.56;;;19.36;60.82
6565;BME280;3316;44.118;27.258;2023-04-24T05:26:34;100900.31;;;19.33;60.63
6565;BME280;3316;44.118;27.258;2023-04-24T05:29:01;100907.84;;;19.65;58.51
6565;BME280;3316;44.118;27.258;2023-04-24T05:31:26;100913.41;;;19.39;59.08
6565;BME280;3316;44.118;27.258;2023-04-24T05:33:51;100909.81;;;18.52;60.93
6565;BME280;3316;44.118;27.258;2023-04-24T05:36:17;100906.69;;;18.18;63.32
6565;BME280;3316;44.118;27.258;2023-04-24T05:38:42;100865.84;;;17.94;63.50
6565;BME280;3316;44.118;27.258;2023-04-24T05:41:08;100921.88;;;18.14;63.23
6565;BME280;3316;44.118;27.258;2023-04-24T05:43:41;100906.28;;;18.51;62.10
6565;BME280;3316;44.118;27.258;2023-04-24T05:46:07;100918.94;;;18.46;63.07
6565;BME280;3316;44.118;27.258;2023-04-24T05:48:32;100907.53;;;19.09;60.30
6565;BME280;3316;44.118;27.258;2023-04-24T05:50:58;100913.09;;;19.25;60.21
6565;BME280;3316;44.118;27.258;2023-04-24T05:53:23;100913.44;;;19.59;59.69
6565;BME280;3316;44.118;27.258;2023-04-24T05:55:48;100901.56;;;19.46;59.12
6565;BME280;3316;44.118;27.258;2023-04-24T05:58:14;100909.16;;;20.15;57.97
6565;BME280;3316;44.118;27.258;2023-04-24T06:00:40;100920.66;;;19.77;57.08
6565;BME280;3316;44.118;27.258;2023-04-24T06:03:08;100913.56;;;19.76;58.88
6565;BME280;3316;44.118;27.258;2023-04-24T06:05:33;100883.50;;;20.11;55.21
6565;BME280;3316;44.118;27.258;2023-04-24T06:08:00;100921.06;;;19.88;54.87
6565;BME280;3316;44.118;27.258;2023-04-24T06:10:25;100917.00;;;19.60;55.89
6565;BME280;3316;44.118;27.258;2023-04-24T06:12:50;100928.97;;;19.91;55.49
6565;BME280;3316;44.118;27.258;2023-04-24T06:15:16;100907.00;;;20.44;53.91
6565;BME280;3316;44.118;27.258;2023-04-24T06:17:41;100916.44;;;20.12;53.44
6565;BME280;3316;44.118;27.258;2023-04-24T06:20:07;100922.44;;;20.93;51.78
6565;BME280;3316;44.118;27.258;2023-04-24T06:22:33;100925.84;;;20.78;52.33
6565;BME280;3316;44.118;27.258;2023-04-24T06:24:59;100925.59;;;20.06;52.80
6565;BME280;3316;44.118;27.258;2023-04-24T06:27:25;100915.00;;;19.85;53.80
6565;BME280;3316;44.118;27.258;2023-04-24T06:29:51;100919.66;;;20.20;52.54
6565;BME280;3316;44.118;27.258;2023-04-24T06:32:23;100921.69;;;19.11;55.54
6565;BME280;3316;44.118;27.258;2023-04-24T06:34:53;100910.94;;;18.46;57.38
6565;BME280;3316;44.118;27.258;2023-04-24T06:37:22;100922.91;;;18.58;57.09
6565;BME280;3316;44.118;27.258;2023-04-24T06:39:48;100910.13;;;18.44;58.87
6565;BME280;3316;44.118;27.258;2023-04-24T06:42:13;100912.41;;;18.77;57.50
6565;BME280;3316;44.118;27.258;2023-04-24T06:44:38;100916.84;;;19.21;56.85
6565;BME280;3316;44.118;27.258;2023-04-24T06:47:08;100916.22;;;19.14;57.46
6565;BME280;3316;44.118;27.258;2023-04-24T06:49:37;100915.53;;;18.88;55.79
6565;BME280;3316;44.118;27.258;2023-04-24T06:52:03;100883.53;;;18.88;56.61
6565;BME280;3316;44.118;27.258;2023-04-24T06:54:29;100905.84;;;19.07;58.26
6565;BME280;3316;44.118;27.258;2023-04-24T06:56:55;100865.91;;;19.47;57.90
6565;BME280;3316;44.118;27.258;2023-04-24T06:59:23;100913.13;;;19.67;57.52
6565;BME280;3316;44.118;27.258;2023-04-24T07:01:48;100915.06;;;19.63;58.17
6565;BME280;3316;44.118;27.258;2023-04-24T07:04:14;100912.13;;;19.69;57.46
6565;BME280;3316;44.118;27.258;2023-04-24T07:06:39;100914.88;;;19.68;57.98
6565;BME280;3316;44.118;27.258;2023-04-24T07:09:05;100908.44;;;19.92;57.70
6565;BME280;3316;44.118;27.258;2023-04-24T07:11:30;100909.38;;;20.11;56.64
6565;BME280;3316;44.118;27.258;2023-04-24T07:13:56;100899.69;;;20.08;56.91
6565;BME280;3316;44.118;27.258;2023-04-24T07:16:22;100896.22;;;19.86;57.71
6565;BME280;3316;44.118;27.258;2023-04-24T07:18:47;100903.78;;;19.77;57.63
6565;BME280;3316;44.118;27.258;2023-04-24T07:21:13;100905.31;;;20.02;56.64
6565;BME280;3316;44.118;27.258;2023-04-24T07:23:38;100898.69;;;20.11;56.80
6565;BME280;3316;44.118;27.258;2023-04-24T07:26:04;100914.53;;;19.95;56.29
6565;BME280;3316;44.118;27.258;2023-04-24T07:28:30;100918.66;;;20.02;56.29
6565;BME280;3316;44.118;27.258;2023-04-24T07:30:57;100896.34;;;20.03;56.41
6565;BME280;3316;44.118;27.258;2023-04-24T07:33:23;100914.69;;;20.31;55.69
6565;BME280;3316;44.118;27.258;2023-04-24T07:35:49;100905.31;;;20.22;55.23
6565;BME280;3316;44.118;27.258;2023-04-24T07:38:14;100914.06;;;20.26;56.16
6565;BME280;3316;44.118;27.258;2023-04-24T07:40:40;100915.03;;;20.81;54.17
6565;BME280;3316;44.118;27.258;2023-04-24T07:43:05;100908.22;;;20.92;53.09
6565;BME280;3316;44.118;27.258;2023-04-24T07:45:31;100906.50;;;21.27;52.82
6565;BME280;3316;44.118;27.258;2023-04-24T07:47:58;100907.47;;;21.43;50.40
6565;BME280;3316;44.118;27.258;2023-04-24T07:50:24;100908.19;;;21.11;50.23
6565;BME280;3316;44.118;27.258;2023-04-24T07:52:49;100891.94;;;21.33;49.82
6565;BME280;3316;44.118;27.258;2023-04-24T07:55:15;100898.47;;;21.44;49.64
6565;BME280;3316;44.118;27.258;2023-04-24T07:57:40;100909.56;;;21.19;49.78
6565;BME280;3316;44.118;27.258;2023-04-24T08:00:06;100910.31;;;20.67;50.32
6565;BME280;3316;44.118;27.258;2023-04-24T08:02:33;100905.63;;;20.72;50.15
6565;BME280;3316;44.118;27.258;2023-04-24T08:04:58;100916.97;;;20.59;50.56
6565;BME280;3316;44.118;27.258;2023-04-24T08:07:23;100905.16;;;20.81;50.63
6565;BME280;3316;44.118;27.258;2023-04-24T08:09:49;100904.72;;;21.09;49.74
6565;BME280;3316;44.118;27.258;2023-04-24T08:12:15;100907.84;;;21.00;50.07
6565;BME280;3316;44.118;27.258;2023-04-24T08:14:40;100899.81;;;21.00;50.61
6565;BME280;3316;44.118;27.258;2023-04-24T08:17:05;100894.59;;;21.15;50.40
6565;BME280;3316;44.118;27.258;2023-04-24T08:19:31;100906.22;;;21.50;50.15
6565;BME280;3316;44.118;27.258;2023-04-24T08:21:56;100895.50;;;21.50;49.09
6565;BME280;3316;44.118;27.258;2023-04-24T08:24:22;100892.00;;;21.14;49.38
6565;BME280;3316;44.118;27.258;2023-04-24T08:26:48;100900.31;;;21.61;49.44
6565;BME280;3316;44.118;27.258;2023-04-24T08:29:17;100905.78;;;21.23;49.10
6565;BME280;3316;44.118;27.258;2023-04-24T08:31:42;100899.34;;;21.27;49.85
6565;BME280;3316;44.118;27.258;2023-04-24T08:34:09;100885.19;;;21.25;48.72
6565;BME280;3316;44.118;27.258;2023-04-24T08:36:35;100874.00;;;21.35;48.76
6565;BME280;3316;44.118;27.258;2023-04-24T08:39:00;100872.66;;;21.77;48.76
6565;BME280;3316;44.118;27.258;2023-04-24T08:41:27;100890.19;;;21.84;47.71
6565;BME280;3316;44.118;27.258;2023-04-24T08:43:52;100884.75;;;21.86;48.64
6565;BME280;3316;44.118;27.258;2023-04-24T08:46:18;100882.88;;;21.69;46.83
6565;BME280;3316;44.118;27.258;2023-04-24T08:48:45;100877.63;;;21.85;46.23
6565;BME280;3316;44.118;27.258;2023-04-24T08:51:11;100868.25;;;21.59;46.04
6565;BME280;3316;44.118;27.258;2023-04-24T08:53:36;100864.38;;;21.48;46.93
6565;BME280;3316;44.118;27.258;2023-04-24T08:56:03;100875.50;;;21.40;46.54
6565;BME280;3316;44.118;27.258;2023-04-24T08:58:29;100873.38;;;21.64;46.16
6565;BME280;3316;44.118;27.258;2023-04-24T09:00:56;100877.84;;;21.63;45.27
6565;BME280;3316;44.118;27.258;2023-04-24T09:03:22;100842.00;;;21.66;45.49
6565;BME280;3316;44.118;27.258;2023-04-24T09:05:48;100858.72;;;21.88;45.40
6565;BME280;3316;44.118;27.258;2023-04-24T09:08:17;100875.56;;;21.56;44.96
6565;BME280;3316;44.118;27.258;2023-04-24T09:10:43;100872.50;;;21.46;46.20
6565;BME280;3316;44.118;27.258;2023-04-24T09:13:09;100857.69;;;21.56;45.96
6565;BME280;3316;44.118;27.258;2023-04-24T09:15:36;100828.81;;;21.11;46.56
6565;BME280;3316;44.118;27.258;2023-04-24T09:18:01;100867.13;;;21.63;45.20
6565;BME280;3316;44.118;27.258;2023-04-24T09:20:27;100853.16;;;21.41;44.53
6565;BME280;3316;44.118;27.258;2023-04-24T09:22:59;100850.13;;;21.30;43.93
6565;BME280;3316;44.118;27.258;2023-04-24T09:25:31;100869.34;;;21.72;44.46
6565;BME280;3316;44.118;27.258;2023-04-24T09:28:01;100841.06;;;21.50;44.89
6565;BME280;3316;44.118;27.258;2023-04-24T09:30:28;100869.81;;;21.46;44.84
6565;BME280;3316;44.118;27.258;2023-04-24T09:33:13;100861.06;;;21.77;43.39
6565;BME280;3316;44.118;27.258;2023-04-24T09:35:50;100844.97;;;22.11;43.73
6565;BME280;3316;44.118;27.258;2023-04-24T09:38:16;100855.41;;;22.00;43.39
6565;BME280;3316;44.118;27.258;2023-04-24T09:40:41;100809.44;;;21.41;43.33
6565;BME280;3316;44.118;27.258;2023-04-24T09:43:10;100775.28;;;21.28;44.31
6565;BME280;3316;44.118;27.258;2023-04-24T09:45:37;100823.13;;;21.69;43.84
6565;BME280;3316;44.118;27.258;2023-04-24T09:48:03;100834.28;;;21.77;43.27
6565;BME280;3316;44.118;27.258;2023-04-24T09:50:31;100835.44;;;22.05;43.47
6565;BME280;3316;44.118;27.258;2023-04-24T09:53:04;100841.63;;;22.39;42.92
6565;BME280;3316;44.118;27.258;2023-04-24T09:55:30;100846.34;;;22.18;41.85
6565;BME280;3316;44.118;27.258;2023-04-24T09:58:00;100839.72;;;21.75;41.61
6565;BME280;3316;44.118;27.258;2023-04-24T10:00:28;100841.19;;;21.82;42.54
6565;BME280;3316;44.118;27.258;2023-04-24T10:03:04;100835.91;;;21.96;42.46
6565;BME280;3316;44.118;27.258;2023-04-24T10:05:30;100840.53;;;22.10;42.48
6565;BME280;3316;44.118;27.258;2023-04-24T10:08:11;100846.13;;;21.56;43.02
6565;BME280;3316;44.118;27.258;2023-04-24T10:10:42;100832.19;;;21.66;43.34
6565;BME280;3316;44.118;27.258;2023-04-24T10:13:10;100827.94;;;22.43;42.15
6565;BME280;3316;44.118;27.258;2023-04-24T10:15:37;100834.31;;;22.58;41.11
6565;BME280;3316;44.118;27.258;2023-04-24T10:18:04;100803.19;;;22.07;41.32
6565;BME280;3316;44.118;27.258;2023-04-24T10:20:32;100821.19;;;22.21;41.10
6565;BME280;3316;44.118;27.258;2023-04-24T10:22:59;100825.66;;;22.04;40.40
6565;BME280;3316;44.118;27.258;2023-04-24T10:25:29;100810.69;;;22.00;40.91
6565;BME280;3316;44.118;27.258;2023-04-24T10:27:56;100820.22;;;22.22;40.13
6565;BME280;3316;44.118;27.258;2023-04-24T10:30:24;100814.91;;;21.89;39.51
6565;BME280;3316;44.118;27.258;2023-04-24T10:32:50;100812.91;;;22.25;40.16
6565;BME280;3316;44.118;27.258;2023-04-24T10:35:17;100804.19;;;22.53;40.10
6565;BME280;3316;44.118;27.258;2023-04-24T10:37:44;100795.44;;;22.80;40.00
6565;BME280;3316;44.118;27.258;2023-04-24T10:40:11;100797.31;;;22.94;39.87
6565;BME280;3316;44.118;27.258;2023-04-24T10:42:40;100795.69;;;22.13;40.67
6565;BME280;3316;44.118;27.258;2023-04-24T10:45:22;100792.50;;;22.38;39.92
6565;BME280;3316;44.118;27.258;2023-04-24T10:47:58;100786.09;;;22.41;39.78
6565;BME280;3316;44.118;27.258;2023-04-24T10:50:30;100782.22;;;22.31;39.44
6565;BME280;3316;44.118;27.258;2023-04-24T10:53:11;100791.81;;;22.50;40.24
6565;BME280;3316;44.118;27.258;2023-04-24T10:55:59;100795.03;;;22.57;38.63
6565;BME280;3316;44.118;27.258;2023-04-24T10:58:41;100776.19;;;22.88;38.98
6565;BME280;3316;44.118;27.258;2023-04-24T11:01:37;100796.06;;;23.31;39.31
6565;BME280;3316;44.118;27.258;2023-04-24T11:04:03;100798.41;;;22.76;40.74
6565;BME280;3316;44.118;27.258;2023-04-24T11:06:29;100792.06;;;22.46;41.34
6565;BME280;3316;44.118;27.258;2023-04-24T11:09:03;100780.75;;;22.56;41.47
6565;BME280;3316;44.118;27.258;2023-04-24T11:11:30;100780.22;;;22.65;42.18
6565;BME280;3316;44.118;27.258;2023-04-24T11:21:38;100775.97;;;22.14;40.88
6565;BME280;3316;44.118;27.258;2023-04-24T11:35:04;100752.25;;;22.85;40.61
6565;BME280;3316;44.118;27.258;2023-04-24T11:39:59;100746.88;;;22.85;40.98
6565;BME280;3316;44.118;27.258;2023-04-24T11:42:24;100748.03;;;23.40;40.53
6565;BME280;3316;44.118;27.258;2023-04-24T11:44:54;100749.28;;;22.60;40.64
6565;BME280;3316;44.118;27.258;2023-04-24T11:47:29;100739.56;;;22.57;41.68
6565;BME280;3316;44.118;27.258;2023-04-24T11:49:55;100743.19;;;22.72;40.24
6565;BME280;3316;44.118;27.258;2023-04-24T11:52:20;100741.84;;;22.94;40.56
6565;BME280;3316;44.118;27.258;2023-04-24T11:54:49;100723.78;;;23.26;40.01
6565;BME280;3316;44.118;27.258;2023-04-24T11:57:16;100728.03;;;23.30;39.77
6565;BME280;3316;44.118;27.258;2023-04-24T11:59:41;100726.38;;;23.28;40.26
6565;BME280;3316;44.118;27.258;2023-04-24T12:02:08;100731.31;;;23.35;39.63
6565;BME280;3316;44.118;27.258;2023-04-24T12:04:40;100729.53;;;23.20;39.28
6565;BME280;3316;44.118;27.258;2023-04-24T12:07:06;100696.09;;;22.96;39.16
6565;BME280;3316;44.118;27.258;2023-04-24T12:12:12;100711.81;;;22.88;39.26
6565;BME280;3316;44.118;27.258;2023-04-24T12:14:48;100713.81;;;22.84;39.67
6565;BME280;3316;44.118;27.258;2023-04-24T12:17:23;100706.56;;;22.71;39.56
6565;BME280;3316;44.118;27.258;2023-04-24T12:19:49;100703.53;;;22.77;39.81
6565;BME280;3316;44.118;27.258;2023-04-24T12:22:16;100706.34;;;22.60;39.75
6565;BME280;3316;44.118;27.258;2023-04-24T12:25:03;100678.31;;;22.50;40.09
6565;BME280;3316;44.118;27.258;2023-04-24T12:27:33;100681.00;;;22.50;40.82
6565;BME280;3316;44.118;27.258;2023-04-24T12:30:00;100676.16;;;22.56;40.42
6565;BME280;3316;44.118;27.258;2023-04-24T12:32:26;100673.81;;;22.66;39.84
6565;BME280;3316;44.118;27.258;2023-04-24T12:34:55;100691.09;;;22.76;40.16
6565;BME280;3316;44.118;27.258;2023-04-24T12:37:23;100682.53;;;22.99;39.36
6565;BME280;3316;44.118;27.258;2023-04-24T12:40:06;100632.19;;;23.02;38.73
6565;BME280;3316;44.118;27.258;2023-04-24T12:42:33;100643.34;;;23.39;37.98
6565;BME280;3316;44.118;27.258;2023-04-24T12:45:00;100652.56;;;23.35;38.07
6565;BME280;3316;44.118;27.258;2023-04-24T12:47:27;100654.09;;;23.53;37.98
6565;BME280;3316;44.118;27.258;2023-04-24T12:49:53;100649.31;;;23.58;37.99
6565;BME280;3316;44.118;27.258;2023-04-24T12:52:23;100646.16;;;23.37;37.54
6565;BME280;3316;44.118;27.258;2023-04-24T12:54:50;100648.94;;;23.36;37.94
6565;BME280;3316;44.118;27.258;2023-04-24T12:57:17;100647.69;;;23.55;37.84
6565;BME280;3316;44.118;27.258;2023-04-24T12:59:42;100638.19;;;23.50;37.66
6565;BME280;3316;44.118;27.258;2023-04-24T13:02:08;100632.13;;;23.60;37.46
6565;BME280;3316;44.118;27.258;2023-04-24T13:04:35;100632.13;;;23.60;38.25
6565;BME280;3316;44.118;27.258;2023-04-24T13:07:00;100628.69;;;23.30;38.63
6565;BME280;3316;44.118;27.258;2023-04-24T13:09:26;100628.28;;;23.22;38.02
6565;BME280;3316;44.118;27.258;2023-04-24T13:11:51;100631.28;;;23.32;38.25
6565;BME280;3316;44.118;27.258;2023-04-24T13:14:16;100636.22;;;23.10;39.55
6565;BME280;3316;44.118;27.258;2023-04-24T13:16:42;100610.16;;;22.83;40.07
6565;BME280;3316;44.118;27.258;2023-04-24T13:19:07;100631.84;;;22.65;41.65